Time;durP1;ratioP1;P1;durP2;ratioP2;P2;SDS_P1;SDS_P2;PMS_P1;PMS_P2;Temp;Humidity;BMP_temperature;BMP_pressure;BME280_temperature;BME280_humidity;BME280_pressure;Samples;Min_cycle;Max_cycle;Signal;HPM_P1;HPM_P2
2023/11/13 00:00:25;;;;;;;2.20;1.48;;;;;;;10.93;67.21;96524.47;4956651;28;20746;-82
2023/11/13 00:02:54;;;;;;;2.58;1.98;;;;;;;10.92;67.55;96535.94;4930200;28;20678;-81
2023/11/13 00:05:20;;;;;;;2.67;1.98;;;;;;;10.93;67.18;96540.09;4958136;28;20195;-81
2023/11/13 00:07:45;;;;;;;2.03;1.42;;;;;;;10.91;68.01;96536.97;4958081;28;20520;-81
2023/11/13 00:10:11;;;;;;;2.72;1.42;;;;;;;10.95;67.39;96522.41;4952756;28;20580;-81
2023/11/13 00:12:36;;;;;;;1.40;1.30;;;;;;;10.98;67.28;96505.44;4931087;28;20290;-82
2023/11/13 00:15:04;;;;;;;2.25;1.58;;;;;;;11.09;67.71;96507.00;4952360;28;20218;-81
2023/11/13 00:17:29;;;;;;;3.75;1.77;;;;;;;11.00;67.63;96503.34;4940142;28;20700;-81
2023/11/13 00:19:54;;;;;;;2.00;1.52;;;;;;;11.00;67.28;96493.75;4929583;28;20202;-81
2023/11/13 00:22:20;;;;;;;2.40;1.33;;;;;;;11.03;67.63;96501.00;4918249;28;20242;-82
2023/11/13 00:24:45;;;;;;;1.90;1.67;;;;;;;11.03;67.26;96485.38;4945668;28;20275;-81
2023/11/13 00:27:10;;;;;;;2.63;1.60;;;;;;;11.11;67.67;96488.50;4929384;28;20199;-82
2023/11/13 00:29:36;;;;;;;1.83;1.45;;;;;;;11.15;67.43;96490.31;4941827;28;20643;-82
2023/11/13 00:32:01;;;;;;;2.20;1.20;;;;;;;11.14;67.31;96493.97;4960937;28;20141;-82
2023/11/13 00:34:26;;;;;;;1.60;1.20;;;;;;;11.12;67.94;96479.63;4935124;28;20285;-81
2023/11/13 00:36:52;;;;;;;2.90;1.80;;;;;;;11.12;67.83;96483.03;4947142;28;20642;-81
2023/11/13 00:39:18;;;;;;;2.20;1.55;;;;;;;11.24;68.12;96483.53;4938973;28;20930;-81
2023/11/13 00:41:43;;;;;;;1.67;1.20;;;;;;;11.08;68.03;96478.59;4937353;28;20200;-81
2023/11/13 00:44:09;;;;;;;1.60;1.35;;;;;;;11.13;67.85;96476.00;4918778;28;20350;-81
2023/11/13 00:46:34;;;;;;;1.45;1.27;;;;;;;11.18;67.95;96492.38;4959013;28;20173;-81
2023/11/13 00:49:00;;;;;;;1.80;1.02;;;;;;;11.25;68.42;96494.72;4980477;28;20187;-82
2023/11/13 00:51:25;;;;;;;1.05;0.85;;;;;;;11.23;68.00;96494.97;4926819;28;20197;-81
2023/11/13 00:53:50;;;;;;;1.35;1.23;;;;;;;11.24;67.66;96498.34;4942887;28;20738;-81
2023/11/13 00:56:16;;;;;;;1.25;0.80;;;;;;;11.26;68.13;96493.69;4939690;28;20693;-81
2023/11/13 00:58:42;;;;;;;1.70;0.80;;;;;;;11.26;68.51;96485.88;4944426;28;20294;-81
2023/11/13 01:01:09;;;;;;;0.90;0.70;;;;;;;11.35;68.40;96479.06;4928985;28;20152;-81
2023/11/13 01:03:35;;;;;;;0.90;0.70;;;;;;;11.46;68.35;96476.41;4960787;28;20289;-81
2023/11/13 01:06:01;;;;;;;0.90;0.70;;;;;;;11.44;68.08;96472.22;4928653;28;20489;-81
2023/11/13 01:08:26;;;;;;;0.82;0.80;;;;;;;11.44;68.30;96458.41;4947893;28;20199;-81
2023/11/13 01:10:52;;;;;;;0.95;0.80;;;;;;;11.46;68.48;96452.94;4922827;28;20704;-81
2023/11/13 01:13:21;;;;;;;1.25;0.73;;;;;;;11.49;68.70;96455.78;4942280;28;20325;-80
2023/11/13 01:15:48;;;;;;;0.95;0.88;;;;;;;11.53;68.15;96453.44;4933560;28;20376;-81
2023/11/13 01:18:17;;;;;;;0.70;0.50;;;;;;;11.55;67.83;96461.75;4946997;28;20234;-81
2023/11/13 01:20:44;;;;;;;1.80;0.90;;;;;;;11.54;68.39;96455.00;4932100;28;20708;-81
2023/11/13 01:23:09;;;;;;;0.95;0.55;;;;;;;11.56;68.91;96458.88;4964537;28;20591;-81
2023/11/13 01:25:35;;;;;;;0.60;0.60;;;;;;;11.60;68.08;96456.53;4981776;28;20211;-82
2023/11/13 01:28:00;;;;;;;0.77;0.43;;;;;;;11.62;68.73;96460.44;4951281;28;20739;-81
2023/11/13 01:30:25;;;;;;;0.60;0.50;;;;;;;11.72;67.86;96466.63;4956932;28;20190;-81
2023/11/13 01:32:51;;;;;;;0.90;0.52;;;;;;;11.70;68.28;96473.94;4943273;28;20279;-81
2023/11/13 01:35:16;;;;;;;0.50;0.50;;;;;;;11.72;68.28;96472.66;4949097;28;20203;-81
2023/11/13 01:37:43;;;;;;;0.65;0.60;;;;;;;11.72;68.67;96459.63;4933224;28;20193;-82
2023/11/13 01:40:09;;;;;;;0.50;0.40;;;;;;;11.77;68.45;96464.81;4929909;28;20280;-81
2023/11/13 01:42:34;;;;;;;0.40;0.40;;;;;;;11.79;68.38;96464.53;4943840;28;20320;-82
2023/11/13 01:45:02;;;;;;;0.75;0.50;;;;;;;11.81;68.24;96454.59;4938089;28;20199;-81
2023/11/13 01:47:29;;;;;;;1.95;0.50;;;;;;;11.84;68.44;96442.84;4960834;28;20207;-82
2023/11/13 01:49:54;;;;;;;0.50;0.35;;;;;;;11.84;68.44;96433.22;4962175;28;20719;-82
2023/11/13 01:52:23;;;;;;;0.40;0.30;;;;;;;11.93;68.89;96442.03;4955809;28;20263;-82
2023/11/13 01:54:48;;;;;;;0.40;0.22;;;;;;;11.89;68.96;96435.78;4944198;28;20356;-82
2023/11/13 01:57:14;;;;;;;0.55;0.30;;;;;;;11.91;68.97;96435.53;4925771;28;20183;-81
2023/11/13 01:59:41;;;;;;;0.30;0.30;;;;;;;11.97;68.89;96427.38;4944615;28;20532;-82
2023/11/13 02:02:07;;;;;;;0.25;0.25;;;;;;;12.00;68.09;96423.47;4924853;28;20184;-82
2023/11/13 02:04:33;;;;;;;0.63;0.30;;;;;;;12.09;68.13;96426.28;4942203;28;20204;-82
2023/11/13 02:07:00;;;;;;;0.43;0.20;;;;;;;12.10;68.00;96414.81;4962928;28;20515;-81
2023/11/13 02:09:26;;;;;;;0.40;0.30;;;;;;;12.05;68.82;96402.56;4933103;28;20191;-82
2023/11/13 02:11:51;;;;;;;0.35;0.20;;;;;;;12.18;68.75;96415.00;4941791;28;20326;-82
2023/11/13 02:14:17;;;;;;;0.20;0.20;;;;;;;12.19;68.69;96402.72;4959203;28;20554;-82
2023/11/13 02:16:42;;;;;;;0.10;0.10;;;;;;;12.20;67.69;96395.66;4941241;28;20318;-83
2023/11/13 02:19:08;;;;;;;0.65;0.20;;;;;;;12.14;68.23;96395.69;4968160;28;20192;-82
2023/11/13 02:21:33;;;;;;;0.40;0.10;;;;;;;12.22;67.75;96404.00;4929353;28;20658;-82
2023/11/13 02:24:01;;;;;;;0.20;0.20;;;;;;;12.18;68.33;96394.13;4932048;28;20694;-81
2023/11/13 02:26:29;;;;;;;0.10;0.10;;;;;;;12.16;68.51;96387.59;4931457;28;20591;-81
2023/11/13 02:28:55;;;;;;;0.38;0.10;;;;;;;12.24;69.30;96399.31;4961247;28;20357;-82
2023/11/13 02:31:20;;;;;;;0.10;0.10;;;;;;;12.23;68.24;96388.06;4958577;28;20285;-82
2023/11/13 02:33:46;;;;;;;0.20;0.20;;;;;;;12.29;68.48;96389.59;4935997;28;20303;-83
2023/11/13 02:36:11;;;;;;;0.15;0.15;;;;;;;12.36;68.32;96400.47;4931395;28;20692;-83
2023/11/13 02:38:37;;;;;;;0.30;0.20;;;;;;;12.35;68.20;96406.78;4956058;28;20185;-83
2023/11/13 02:41:02;;;;;;;0.52;0.20;;;;;;;12.30;68.63;96414.66;4956507;28;20481;-82
2023/11/13 02:43:28;;;;;;;0.30;0.30;;;;;;;12.35;68.55;96416.41;4944753;28;20392;-82
2023/11/13 02:45:53;;;;;;;1.58;0.20;;;;;;;12.40;68.23;96424.22;4944499;28;20289;-83
2023/11/13 02:48:19;;;;;;;0.65;0.32;;;;;;;12.43;68.32;96423.66;4923777;28;20161;-82
2023/11/13 02:50:44;;;;;;;0.50;0.40;;;;;;;12.45;68.32;96408.50;4950471;28;20181;-82
2023/11/13 02:53:09;;;;;;;1.30;0.40;;;;;;;12.45;69.39;96405.88;4928139;28;20728;-82
2023/11/13 02:55:35;;;;;;;1.08;0.60;;;;;;;12.51;69.02;96394.34;4936075;28;20200;-83
2023/11/13 02:58:01;;;;;;;1.05;0.90;;;;;;;12.54;70.29;96393.00;4946972;28;20212;-81
2023/11/13 03:00:26;;;;;;;1.20;1.02;;;;;;;12.62;69.64;96399.47;4959561;28;20266;-83
2023/11/13 03:02:51;;;;;;;1.88;1.23;;;;;;;12.70;69.57;96409.34;4963122;28;20215;-82
2023/11/13 03:05:17;;;;;;;1.63;1.00;;;;;;;12.83;69.31;96420.94;4985166;28;20182;-82
2023/11/13 03:07:46;;;;;;;1.40;1.30;;;;;;;12.93;69.55;96421.59;4961550;28;20191;-82
2023/11/13 03:10:11;;;;;;;1.90;1.40;;;;;;;12.99;69.59;96429.41;4966105;28;20186;-82
2023/11/13 03:12:40;;;;;;;2.63;1.10;;;;;;;12.95;69.89;96433.63;4941470;28;20211;-83
2023/11/13 03:15:06;;;;;;;2.08;1.05;;;;;;;12.97;69.97;96426.28;4942209;28;20287;-82
2023/11/13 03:17:31;;;;;;;2.20;1.30;;;;;;;13.09;69.55;96429.28;4951333;28;20674;-82
2023/11/13 03:19:57;;;;;;;2.35;0.95;;;;;;;13.10;70.21;96433.47;4959503;28;20187;-82
2023/11/13 03:22:22;;;;;;;2.65;1.00;;;;;;;13.17;70.01;96444.38;4926056;28;20262;-82
2023/11/13 03:24:48;;;;;;;0.90;0.90;;;;;;;13.18;69.57;96442.50;4954275;28;20719;-82
2023/11/13 03:27:13;;;;;;;0.98;0.68;;;;;;;13.26;69.18;96445.31;4958394;28;20215;-82
2023/11/13 03:29:39;;;;;;;0.50;0.40;;;;;;;13.43;68.73;96439.63;4946840;28;20746;-82
2023/11/13 03:32:05;;;;;;;1.42;0.68;;;;;;;13.32;70.25;96445.28;4929800;28;20640;-84
2023/11/13 03:34:31;;;;;;;1.25;0.50;;;;;;;13.40;70.32;96439.41;4934820;28;20223;-81
2023/11/13 03:36:56;;;;;;;0.47;0.38;;;;;;;13.44;70.02;96451.66;4938692;28;20208;-82
2023/11/13 03:39:21;;;;;;;0.80;0.50;;;;;;;13.55;70.09;96447.06;4956166;28;20212;-80
2023/11/13 03:41:47;;;;;;;1.80;0.50;;;;;;;13.47;69.97;96458.19;4945999;28;20231;-80
2023/11/13 03:44:12;;;;;;;2.15;0.80;;;;;;;13.49;70.82;96435.91;4984086;28;20243;-82
2023/11/13 03:46:37;;;;;;;1.02;0.50;;;;;;;13.70;69.70;96443.50;4940583;28;20272;-81
2023/11/13 03:49:03;;;;;;;0.88;0.57;;;;;;;13.81;70.79;96441.50;4952703;28;20358;-81
2023/11/13 03:51:29;;;;;;;1.23;0.30;;;;;;;13.75;69.66;96445.28;4934376;28;20157;-81
2023/11/13 03:53:54;;;;;;;17.75;1.00;;;;;;;13.82;69.27;96440.47;4944196;28;20173;-81
2023/11/13 03:56:21;;;;;;;1.50;0.40;;;;;;;13.97;70.40;96448.09;4962910;28;20642;-82
2023/11/13 03:58:46;;;;;;;4.57;1.40;;;;;;;13.68;70.65;96435.16;4982646;28;20693;-80
2023/11/13 04:01:13;;;;;;;3.65;0.80;;;;;;;13.89;70.45;96446.13;4937268;28;20275;-80
2023/11/13 04:03:38;;;;;;;1.42;0.70;;;;;;;13.97;70.39;96455.94;4951477;28;20227;-81
2023/11/13 04:06:04;;;;;;;3.25;0.80;;;;;;;14.04;69.34;96440.66;4929380;28;20560;-82
2023/11/13 04:08:30;;;;;;;1.83;1.10;;;;;;;14.09;69.33;96452.13;4930658;28;20192;-81
2023/11/13 04:10:55;;;;;;;2.05;1.15;;;;;;;14.16;69.72;96455.16;4929990;28;20266;-81
2023/11/13 04:13:21;;;;;;;4.85;1.00;;;;;;;14.18;69.91;96451.19;4960037;28;20413;-82
2023/11/13 04:15:47;;;;;;;3.42;1.58;;;;;;;13.93;71.11;96457.59;4961401;28;20180;-81
2023/11/13 04:18:13;;;;;;;3.13;0.93;;;;;;;14.09;70.39;96466.00;4964678;28;20202;-81
2023/11/13 04:20:39;;;;;;;2.75;0.95;;;;;;;14.17;69.28;96472.41;4958601;28;20258;-81
2023/11/13 04:23:05;;;;;;;2.17;1.58;;;;;;;14.29;69.60;96485.88;4949707;28;20725;-81
2023/11/13 04:25:30;;;;;;;3.85;1.20;;;;;;;14.12;69.80;96490.81;4936565;28;20282;-81
2023/11/13 04:27:57;;;;;;;4.05;1.20;;;;;;;13.97;70.04;96497.81;4944067;28;20083;-81
2023/11/13 04:30:22;;;;;;;5.30;1.17;;;;;;;14.08;69.58;96495.84;4965211;28;20192;-80
2023/11/13 04:32:48;;;;;;;4.95;1.65;;;;;;;14.01;70.58;96492.81;4962588;28;20272;-80
2023/11/13 04:35:13;;;;;;;5.15;1.30;;;;;;;14.05;70.15;96491.97;4938107;28;20760;-82
2023/11/13 04:37:39;;;;;;;4.30;1.67;;;;;;;13.90;70.49;96497.41;4931893;28;20198;-81
2023/11/13 04:40:05;;;;;;;5.28;1.60;;;;;;;14.02;70.66;96510.06;4962638;28;20321;-80
2023/11/13 04:42:31;;;;;;;6.03;1.60;;;;;;;14.11;69.43;96510.97;4944727;28;20139;-81
2023/11/13 04:44:57;;;;;;;4.00;2.08;;;;;;;14.11;70.35;96507.59;4957238;28;20767;-82
2023/11/13 04:47:22;;;;;;;8.95;2.00;;;;;;;14.04;69.80;96495.63;4940002;28;20400;-80
2023/11/13 04:49:47;;;;;;;5.70;1.80;;;;;;;14.10;69.28;96503.41;4967526;28;20618;-80
2023/11/13 04:52:13;;;;;;;7.65;2.05;;;;;;;13.96;70.08;96483.16;4948656;28;20284;-81
2023/11/13 04:54:38;;;;;;;7.00;2.10;;;;;;;13.89;69.73;96485.38;4947933;28;20156;-82
2023/11/13 04:57:04;;;;;;;5.53;2.53;;;;;;;14.07;69.47;96503.97;4964120;28;20161;-80
2023/11/13 04:59:29;;;;;;;7.88;2.00;;;;;;;14.08;69.61;96501.06;4930923;28;20239;-80
2023/11/13 05:01:55;;;;;;;6.47;1.80;;;;;;;14.09;69.42;96488.78;4929263;28;20715;-80
2023/11/13 05:04:20;;;;;;;5.22;2.05;;;;;;;14.19;68.70;96496.50;4962057;28;20211;-81
2023/11/13 05:06:45;;;;;;;6.65;2.50;;;;;;;14.06;69.30;96505.81;4944244;28;20204;-80
2023/11/13 05:09:12;;;;;;;8.35;2.13;;;;;;;14.05;68.39;96507.66;4946193;28;20195;-81
2023/11/13 05:11:37;;;;;;;9.82;2.55;;;;;;;13.96;69.92;96511.97;4967273;28;20347;-80
2023/11/13 05:14:03;;;;;;;8.38;2.70;;;;;;;14.01;69.65;96498.03;4967221;28;20748;-81
2023/11/13 05:16:29;;;;;;;10.25;2.50;;;;;;;14.04;68.92;96494.84;4964689;28;20248;-82
2023/11/13 05:18:55;;;;;;;9.55;2.55;;;;;;;14.03;68.85;96515.03;4947953;28;20221;-80
2023/11/13 05:21:21;;;;;;;12.32;2.58;;;;;;;13.89;69.07;96505.53;4950560;28;20129;-81
2023/11/13 05:23:50;;;;;;;11.90;2.60;;;;;;;13.99;68.91;96514.03;4942216;28;20195;-81
2023/11/13 05:26:19;;;;;;;11.88;2.53;;;;;;;14.15;68.73;96521.66;4963452;28;20571;-81
2023/11/13 05:28:44;;;;;;;7.50;2.40;;;;;;;14.18;68.45;96515.88;4921850;28;20201;-81
2023/11/13 05:31:09;;;;;;;9.43;3.17;;;;;;;14.08;68.88;96505.53;4953178;28;20268;-82
2023/11/13 05:33:35;;;;;;;6.90;2.97;;;;;;;14.04;68.52;96502.72;4959587;28;20178;-82
2023/11/13 05:36:00;;;;;;;6.93;2.47;;;;;;;14.07;68.18;96509.22;4938492;28;20258;-82
2023/11/13 05:38:26;;;;;;;12.82;3.10;;;;;;;13.86;69.83;96519.94;4916194;28;20600;-81
2023/11/13 05:40:51;;;;;;;8.05;2.97;;;;;;;14.15;68.83;96516.44;4917626;28;20634;-81
2023/11/13 05:43:16;;;;;;;12.30;3.33;;;;;;;14.23;68.47;96518.41;4940486;28;20316;-82
2023/11/13 05:45:42;;;;;;;13.02;3.78;;;;;;;14.14;68.20;96517.50;4940918;28;20191;-81
2023/11/13 05:48:07;;;;;;;12.63;3.47;;;;;;;14.22;67.98;96509.00;4928511;28;20268;-82
2023/11/13 05:50:33;;;;;;;8.82;2.60;;;;;;;14.17;68.63;96506.44;4956591;28;20183;-83
2023/11/13 05:52:59;;;;;;;10.65;3.03;;;;;;;14.17;68.58;96498.59;4956350;28;20280;-82
2023/11/13 05:55:24;;;;;;;10.70;3.20;;;;;;;14.26;68.44;96501.34;4940318;28;20269;-82
2023/11/13 05:57:50;;;;;;;13.70;3.40;;;;;;;14.30;67.76;96500.50;4954643;28;20197;-82
2023/11/13 06:00:18;;;;;;;12.05;3.15;;;;;;;14.17;67.89;96493.34;4952697;28;20238;-83
2023/11/13 06:02:44;;;;;;;12.23;3.08;;;;;;;14.17;68.92;96488.13;4926494;28;20259;-81
2023/11/13 06:05:09;;;;;;;18.30;3.42;;;;;;;14.21;68.13;96510.84;4941994;28;20478;-82
2023/11/13 06:07:37;;;;;;;12.02;4.18;;;;;;;14.17;68.13;96516.91;4944402;28;20670;-81
2023/11/13 06:10:07;;;;;;;12.80;3.95;;;;;;;14.27;68.16;96518.63;4955155;28;20669;-82
2023/11/13 06:12:33;;;;;;;13.48;4.55;;;;;;;14.20;68.91;96517.13;4968618;28;20195;-82
2023/11/13 06:14:59;;;;;;;10.93;3.60;;;;;;;14.24;68.65;96526.00;4953768;28;20186;-81
2023/11/13 06:17:25;;;;;;;13.93;3.58;;;;;;;14.05;67.96;96502.44;4962183;28;20591;-82
2023/11/13 06:19:51;;;;;;;9.18;3.13;;;;;;;14.22;68.41;96522.88;4964230;28;20246;-82
2023/11/13 06:22:17;;;;;;;9.60;3.65;;;;;;;14.24;68.38;96530.47;4945786;28;20101;-83
2023/11/13 06:24:43;;;;;;;14.20;4.07;;;;;;;14.23;68.20;96521.81;4931365;28;20726;-82
2023/11/13 06:27:09;;;;;;;13.18;4.13;;;;;;;14.21;68.14;96520.53;4947328;28;20666;-83
2023/11/13 06:29:35;;;;;;;14.38;4.75;;;;;;;14.02;69.32;96523.94;4961727;28;20555;-82
2023/11/13 06:32:01;;;;;;;10.77;4.20;;;;;;;14.21;68.87;96531.78;4968961;28;20187;-83
2023/11/13 06:34:28;;;;;;;9.63;3.50;;;;;;;14.29;68.92;96537.44;4957607;28;20142;-82
2023/11/13 06:36:53;;;;;;;11.38;3.15;;;;;;;14.18;67.87;96523.72;4934427;28;20208;-83
2023/11/13 06:39:19;;;;;;;16.08;4.18;;;;;;;14.28;67.96;96531.44;4953019;28;20226;-83
2023/11/13 06:41:45;;;;;;;13.38;2.90;;;;;;;14.21;67.82;96534.41;4962064;28;20243;-83
2023/11/13 06:44:10;;;;;;;15.40;3.03;;;;;;;14.14;68.03;96531.38;4945966;28;20256;-82
2023/11/13 06:46:36;;;;;;;14.23;3.70;;;;;;;14.17;68.90;96535.25;4981893;28;20094;-83
2023/11/13 06:49:03;;;;;;;12.93;2.78;;;;;;;14.11;68.38;96518.84;4967572;28;20197;-82
2023/11/13 06:51:28;;;;;;;9.82;3.15;;;;;;;14.22;68.31;96528.13;4946840;28;20795;-82
2023/11/13 06:53:54;;;;;;;12.98;3.30;;;;;;;14.17;68.78;96533.44;4946751;28;20203;-83
2023/11/13 06:56:20;;;;;;;13.10;3.42;;;;;;;14.20;68.88;96524.97;4973580;28;20628;-82
2023/11/13 06:58:45;;;;;;;11.13;3.30;;;;;;;14.20;68.40;96529.44;4953142;28;20569;-82
2023/11/13 07:01:11;;;;;;;14.93;4.50;;;;;;;14.05;68.95;96522.56;4958833;28;20204;-83
2023/11/13 07:03:38;;;;;;;9.80;3.13;;;;;;;14.15;67.97;96522.44;4956938;28;20198;-82
2023/11/13 07:06:06;;;;;;;10.55;3.25;;;;;;;14.07;68.55;96515.25;4961408;28;20349;-83
2023/11/13 07:08:32;;;;;;;8.50;3.33;;;;;;;14.16;68.12;96512.75;4964109;28;20262;-82
2023/11/13 07:10:58;;;;;;;9.38;3.05;;;;;;;14.11;68.49;96504.97;4977741;28;20192;-82
2023/11/13 07:13:23;;;;;;;9.60;2.60;;;;;;;13.88;68.23;96496.91;4962254;28;20287;-83
2023/11/13 07:15:50;;;;;;;7.90;2.67;;;;;;;13.97;68.61;96486.59;4966321;28;20091;-83
2023/11/13 07:18:15;;;;;;;7.60;2.13;;;;;;;13.96;68.05;96498.88;4958055;28;20658;-83
2023/11/13 07:20:41;;;;;;;6.63;2.67;;;;;;;13.99;67.86;96505.41;4976988;28;20257;-83
2023/11/13 07:23:06;;;;;;;9.43;2.40;;;;;;;14.02;67.60;96505.59;4954312;28;20532;-83
2023/11/13 07:25:32;;;;;;;8.82;2.38;;;;;;;14.00;67.61;96505.13;4963791;28;20677;-84
2023/11/13 07:27:57;;;;;;;6.28;2.00;;;;;;;14.04;68.19;96516.56;4974899;28;20185;-83
2023/11/13 07:30:23;;;;;;;4.32;2.05;;;;;;;14.01;68.51;96513.75;4960023;28;20125;-84
2023/11/13 07:32:48;;;;;;;5.95;2.28;;;;;;;13.90;68.40;96488.75;4973457;28;20259;-83
2023/11/13 07:35:14;;;;;;;7.82;1.85;;;;;;;13.93;68.06;96501.28;4950898;28;20263;-83
2023/11/13 07:37:39;;;;;;;8.48;2.08;;;;;;;13.92;68.31;96510.97;4977494;28;20131;-84
2023/11/13 07:40:09;;;;;;;4.30;2.25;;;;;;;13.92;68.02;96512.81;4943780;28;20571;-83
2023/11/13 07:42:36;;;;;;;8.50;2.33;;;;;;;13.88;68.36;96512.63;4976652;28;20199;-83
2023/11/13 07:45:03;;;;;;;6.18;1.77;;;;;;;13.97;68.51;96512.75;4958839;28;20210;-82
2023/11/13 07:47:28;;;;;;;5.30;2.35;;;;;;;13.97;68.60;96518.00;4963465;28;20420;-82
2023/11/13 07:49:56;;;;;;;5.07;1.95;;;;;;;14.03;68.61;96529.94;4988927;28;20391;-83
2023/11/13 07:52:22;;;;;;;5.85;2.03;;;;;;;13.99;68.19;96514.03;4972333;28;20219;-82
2023/11/13 07:54:48;;;;;;;4.22;1.45;;;;;;;13.96;68.58;96514.56;4939296;28;20180;-82
2023/11/13 07:57:14;;;;;;;5.80;1.75;;;;;;;13.88;67.94;96501.34;4940701;28;20182;-83
2023/11/13 07:59:41;;;;;;;7.15;2.00;;;;;;;13.92;67.50;96500.50;4962651;28;20716;-83
2023/11/13 08:02:09;;;;;;;4.53;1.48;;;;;;;13.98;68.34;96504.63;4966435;28;20260;-83
2023/11/13 08:04:35;;;;;;;6.82;1.73;;;;;;;13.93;67.18;96494.22;4946294;28;20203;-82
2023/11/13 08:07:00;;;;;;;4.50;1.45;;;;;;;13.95;67.68;96497.34;4966836;28;20607;-82
2023/11/13 08:09:26;;;;;;;4.55;1.95;;;;;;;13.83;67.19;96483.91;4955134;28;20184;-82
2023/11/13 08:11:51;;;;;;;2.20;1.00;;;;;;;13.84;68.21;96480.19;4946808;28;20516;-82
2023/11/13 08:14:16;;;;;;;6.13;1.00;;;;;;;13.75;67.34;96476.66;4972072;28;20277;-82
2023/11/13 08:16:42;;;;;;;4.53;1.13;;;;;;;13.82;67.50;96479.72;4957921;28;20250;-82
2023/11/13 08:19:10;;;;;;;5.05;1.30;;;;;;;13.81;68.24;96475.53;4951068;28;20199;-83
2023/11/13 08:21:35;;;;;;;3.30;1.10;;;;;;;13.84;67.17;96475.72;4981686;28;20620;-82
2023/11/13 08:24:01;;;;;;;2.40;1.02;;;;;;;13.77;68.63;96464.06;4953272;28;20229;-83
2023/11/13 08:26:32;;;;;;;1.95;0.90;;;;;;;13.67;68.33;96460.53;4957065;28;20294;-82
2023/11/13 08:29:00;;;;;;;4.03;0.73;;;;;;;13.78;67.82;96449.94;4967451;28;20263;-83
2023/11/13 08:31:26;;;;;;;2.85;1.10;;;;;;;13.77;67.85;96443.16;4972736;28;20199;-83
2023/11/13 08:33:55;;;;;;;2.53;0.73;;;;;;;13.76;68.12;96425.88;4948561;28;20334;-82
2023/11/13 08:36:26;;;;;;;2.20;1.00;;;;;;;13.84;68.29;96433.09;4954833;28;20244;-82
2023/11/13 08:38:52;;;;;;;3.05;0.85;;;;;;;13.82;67.74;96433.38;4950297;28;20326;-82
2023/11/13 08:41:18;;;;;;;2.47;0.68;;;;;;;13.73;68.31;96421.25;4941784;28;20247;-83
2023/11/13 08:43:45;;;;;;;2.00;0.80;;;;;;;13.71;68.37;96413.66;4970842;28;20172;-81
2023/11/13 08:46:13;;;;;;;2.05;0.57;;;;;;;13.84;68.08;96422.63;4944158;28;20183;-83
2023/11/13 08:48:38;;;;;;;3.67;0.80;;;;;;;13.77;68.34;96416.97;4944368;28;20212;-83
2023/11/13 08:51:07;;;;;;;2.42;0.88;;;;;;;13.83;69.46;96421.09;4926455;28;20283;-82
2023/11/13 08:53:38;;;;;;;2.47;0.77;;;;;;;13.86;68.67;96412.66;4966154;28;20651;-82
2023/11/13 08:56:07;;;;;;;2.78;1.35;;;;;;;13.85;69.69;96422.34;4937949;28;20203;-82
2023/11/13 08:58:35;;;;;;;2.40;1.15;;;;;;;13.90;69.03;96397.16;4971428;28;20207;-82
2023/11/13 09:01:00;;;;;;;5.78;1.33;;;;;;;14.00;69.18;96412.72;4964501;28;20419;-82
2023/11/13 09:03:29;;;;;;;3.03;1.10;;;;;;;14.09;68.63;96410.25;4929195;28;20306;-81
2023/11/13 09:05:55;;;;;;;3.70;1.30;;;;;;;14.16;68.68;96414.03;4941714;28;20302;-82
2023/11/13 09:08:21;;;;;;;3.58;1.48;;;;;;;13.95;69.54;96408.34;4948209;28;20234;-82
2023/11/13 09:10:46;;;;;;;5.53;2.80;;;;;;;14.18;69.58;96411.16;4969345;28;20211;-83
2023/11/13 09:13:12;;;;;;;7.10;2.22;;;;;;;14.24;69.88;96405.53;4949432;28;20281;-84
2023/11/13 09:15:40;;;;;;;9.77;1.83;;;;;;;14.23;70.82;96405.84;4966032;28;20281;-82
2023/11/13 09:18:05;;;;;;;4.47;1.98;;;;;;;14.41;70.17;96418.09;4932691;28;20242;-80
2023/11/13 09:20:32;;;;;;;8.80;1.92;;;;;;;14.42;70.09;96408.41;4932489;28;20220;-82
2023/11/13 09:22:58;;;;;;;6.75;2.38;;;;;;;14.53;70.67;96422.91;4951284;28;20702;-82
2023/11/13 09:25:26;;;;;;;10.38;2.30;;;;;;;14.60;70.36;96409.44;4949668;28;20262;-83
2023/11/13 09:27:58;;;;;;;8.15;2.58;;;;;;;14.73;70.49;96415.75;4964216;28;20207;-82
2023/11/13 09:30:23;;;;;;;3.53;1.70;;;;;;;14.70;70.72;96405.84;4967683;28;20198;-81
2023/11/13 09:32:50;;;;;;;5.45;2.47;;;;;;;14.75;71.11;96392.66;4960401;28;20320;-82
2023/11/13 09:35:23;;;;;;;8.82;2.50;;;;;;;14.87;71.06;96407.91;4966739;28;20601;-84
2023/11/13 09:37:49;;;;;;;6.28;2.90;;;;;;;15.00;71.15;96403.75;4940984;28;20282;-83
2023/11/13 09:40:16;;;;;;;5.25;2.15;;;;;;;15.08;70.51;96387.31;4946821;28;20691;-82
2023/11/13 09:42:52;;;;;;;6.15;2.67;;;;;;;15.16;71.31;96392.69;4972477;28;20232;-81
2023/11/13 09:45:19;;;;;;;6.20;1.83;;;;;;;15.19;70.52;96406.28;4933631;28;20658;-82
2023/11/13 09:47:45;;;;;;;7.20;2.20;;;;;;;15.07;71.43;96383.94;4935839;28;20227;-81
2023/11/13 09:50:21;;;;;;;5.65;2.33;;;;;;;15.42;70.81;96386.13;4940011;28;20316;-82
2023/11/13 09:52:52;;;;;;;5.90;2.20;;;;;;;15.39;70.63;96387.50;4929873;28;20285;-83
2023/11/13 09:55:20;;;;;;;6.40;2.53;;;;;;;15.47;70.84;96380.78;4981432;28;20265;-82
2023/11/13 09:57:48;;;;;;;5.43;2.65;;;;;;;15.42;70.41;96365.13;4926956;28;20509;-81
2023/11/13 10:00:16;;;;;;;5.47;1.90;;;;;;;15.63;70.54;96371.50;4942291;28;20127;-82
2023/11/13 10:02:46;;;;;;;3.58;1.85;;;;;;;15.72;70.59;96371.56;4952622;28;20187;-81
2023/11/13 10:05:15;;;;;;;5.05;1.52;;;;;;;15.56;70.47;96371.16;4938949;28;20226;-81
2023/11/13 10:07:49;;;;;;;3.35;1.77;;;;;;;15.71;70.37;96354.25;4954366;28;20605;-81
2023/11/13 10:10:22;;;;;;;3.17;1.20;;;;;;;15.68;71.28;96352.25;4963344;28;20694;-81
2023/11/13 10:12:51;;;;;;;5.13;1.55;;;;;;;15.79;70.89;96332.59;4930221;28;20278;-82
2023/11/13 10:15:27;;;;;;;4.22;1.20;;;;;;;15.71;70.81;96341.16;4936418;28;20330;-82
2023/11/13 10:17:57;;;;;;;2.95;0.98;;;;;;;15.92;70.29;96338.88;4942946;28;20259;-82
2023/11/13 10:20:23;;;;;;;2.25;1.10;;;;;;;15.88;70.70;96340.53;4952216;28;20203;-83
2023/11/13 10:23:09;;;;;;;3.97;1.80;;;;;;;16.10;70.25;96345.00;4951759;28;20711;-81
2023/11/13 10:25:47;;;;;;;3.60;1.45;;;;;;;16.15;69.91;96350.13;4944383;28;20224;-82
2023/11/13 10:28:17;;;;;;;3.00;2.03;;;;;;;16.12;70.91;96344.69;4939733;28;20245;-83
2023/11/13 10:31:04;;;;;;;4.28;1.90;;;;;;;16.18;70.48;96344.28;4959199;28;20238;-81
2023/11/13 10:33:30;;;;;;;4.10;1.95;;;;;;;16.06;70.73;96328.28;4967345;28;20188;-80
2023/11/13 10:36:04;;;;;;;5.22;2.45;;;;;;;15.70;72.54;96335.13;4935011;28;20276;-81
2023/11/13 10:38:43;;;;;;;3.45;2.08;;;;;;;16.08;70.44;96326.91;4967831;28;20212;-80
2023/11/13 10:41:10;;;;;;;4.60;1.80;;;;;;;16.10;70.80;96335.25;4967233;28;20199;-80
2023/11/13 10:43:43;;;;;;;4.40;2.05;;;;;;;16.24;70.64;96347.53;4944460;28;20243;-82
2023/11/13 10:46:11;;;;;;;2.58;1.30;;;;;;;16.23;71.01;96325.00;4969995;28;20132;-83
2023/11/13 10:48:42;;;;;;;3.70;1.33;;;;;;;16.04;72.48;96317.28;4954638;28;20213;-83
2023/11/13 10:51:09;;;;;;;2.42;1.10;;;;;;;16.17;71.12;96313.81;4946836;28;20201;-82
2023/11/13 10:53:39;;;;;;;2.83;1.08;;;;;;;16.18;71.57;96310.13;4953836;28;20188;-83
2023/11/13 10:56:06;;;;;;;1.25;1.02;;;;;;;16.25;70.93;96296.56;4954501;28;20211;-82
2023/11/13 10:58:32;;;;;;;2.28;1.27;;;;;;;16.21;70.95;96283.28;4949272;28;20329;-81
2023/11/13 11:01:00;;;;;;;2.65;1.00;;;;;;;16.28;70.93;96275.72;4952892;28;20199;-84
2023/11/13 11:03:27;;;;;;;2.25;1.10;;;;;;;16.27;71.35;96289.91;4945757;28;20196;-83
2023/11/13 11:05:59;;;;;;;3.30;0.95;;;;;;;16.33;71.28;96276.66;4953606;28;20251;-83
2023/11/13 11:08:25;;;;;;;2.25;1.02;;;;;;;16.36;70.77;96265.53;4938633;28;20149;-83
2023/11/13 11:10:52;;;;;;;2.88;1.60;;;;;;;16.35;70.75;96259.53;4969661;28;20586;-81
2023/11/13 11:13:19;;;;;;;3.28;1.50;;;;;;;16.16;71.79;96254.50;4935061;28;20086;-82
2023/11/13 11:16:01;;;;;;;3.97;1.70;;;;;;;16.22;72.16;96258.53;4946065;28;20719;-81
2023/11/13 11:18:32;;;;;;;5.80;2.45;;;;;;;16.29;71.62;96237.84;4966796;28;20585;-82
2023/11/13 11:21:25;;;;;;;3.03;1.33;;;;;;;16.44;72.12;96243.78;4947123;28;20189;-82
2023/11/13 11:24:15;;;;;;;3.25;1.85;;;;;;;16.53;70.93;96236.69;4966132;28;20380;-81
2023/11/13 11:26:58;;;;;;;3.70;1.70;;;;;;;16.47;71.53;96240.56;4951225;28;20286;-82
2023/11/13 11:29:33;;;;;;;3.67;1.50;;;;;;;16.65;71.04;96242.13;4964792;28;20583;-81